^^
Saratoga-Weather Station Historical Data
Daily Summary for July 13, 2021 Units:  English    Metric   Both
Daily Weekly Monthly Yearly Custom
  High: Low: Average:
Temperature: 78.8 °F 55.4 °F 65.1 °F
Dew Point: 61.2 °F 53.1 °F 57.2 °F
Humidity: 93% 49% 78%
Wind Speed: 4.9mph 0mph 0.6mph
Wind Gust: 8mph - -
Wind- - ESE
Pressure: 30 in 29.9 in -
Precipitation: 0 in    
Historical Graphs
 
 
Tabular Data for July 13, 2021
Time Temperature Dew Point Pressure Wind Wind Speed Wind Gust Humidity Rainfall Rate (Hourly) solar
00:03 57.6 °F 54.3 °F 30 in Calm     89% 0 in 0 W/m2
00:08 57.4 °F 54.1 °F 30 in Calm     89% 0 in 0 W/m2
00:13 57.4 °F 54.1 °F 30 in Calm   1 mph 89% 0 in 0 W/m2
00:18 57.4 °F 54.1 °F 30 in Calm     89% 0 in 0 W/m2
00:23 57.2 °F 54.3 °F 30 in Calm   1 mph 90% 0 in 0 W/m2
00:28 57 °F 54.1 °F 30 in Calm     90% 0 in 0 W/m2
00:33 56.8 °F 54 °F 30 in Calm     90% 0 in 0 W/m2
00:38 56.8 °F 54 °F 30 in Calm     90% 0 in 0 W/m2
00:43 56.8 °F 54 °F 30 in Calm     90% 0 in 0 W/m2
00:48 56.7 °F 54.1 °F 30 in Calm     91% 0 in 0 W/m2
00:53 56.7 °F 54.1 °F 30 in Calm     91% 0 in 0 W/m2
00:58 56.7 °F 54.1 °F 30 in Calm     91% 0 in 0 W/m2
01:03 56.7 °F 54.1 °F 30 in Calm     91% 0 in 0 W/m2
01:08 56.5 °F 54 °F 30 in Calm     91% 0 in 0 W/m2
01:13 56.5 °F 54 °F 30 in Calm     91% 0 in 0 W/m2
01:18 56.5 °F 54 °F 30 in Calm   1 mph 91% 0 in 0 W/m2
01:23 56.5 °F 54 °F 30 in Calm     91% 0 in 0 W/m2
01:28 56.3 °F 53.8 °F 30 in Calm     91% 0 in 0 W/m2
01:33 56.3 °F 53.8 °F 30 in Calm     91% 0 in 0 W/m2
01:38 56.1 °F 53.6 °F 30 in Calm     91% 0 in 0 W/m2
01:43 55.9 °F 53.4 °F 30 in Calm     91% 0 in 0 W/m2
01:48 55.9 °F 53.4 °F 30 in Calm     91% 0 in 0 W/m2
01:53 55.9 °F 53.4 °F 30 in Calm     91% 0 in 0 W/m2
01:58 55.8 °F 53.4 °F 30 in Calm     92% 0 in 0 W/m2
02:03 55.9 °F 53.6 °F 30 in Calm     92% 0 in 0 W/m2
02:08 55.9 °F 53.6 °F 30 in Calm     92% 0 in 0 W/m2
02:13 55.9 °F 53.6 °F 30 in Calm     92% 0 in 0 W/m2
02:18 55.9 °F 53.6 °F 30 in Calm     92% 0 in 0 W/m2
02:23 56.1 °F 53.8 °F 30 in Calm     92% 0 in 0 W/m2
02:28 56.1 °F 53.8 °F 30 in Calm     92% 0 in 0 W/m2
02:33 56.1 °F 53.8 °F 30 in Calm     92% 0 in 0 W/m2
02:38 56.5 °F 54.5 °F 30 in Calm     93% 0 in 0 W/m2
02:43 56.5 °F 54.5 °F 30 in Calm     93% 0 in 0 W/m2
02:48 56.7 °F 54.3 °F 30 in Calm     92% 0 in 0 W/m2
02:53 56.7 °F 54.3 °F 30 in Calm     92% 0 in 0 W/m2
02:58 56.8 °F 54.5 °F 30 in Calm     92% 0 in 0 W/m2
03:03 56.8 °F 54.5 °F 30 in Calm     92% 0 in 0 W/m2
03:08 57 °F 55 °F 30 in Calm     93% 0 in 0 W/m2
03:13 57.4 °F 55.4 °F 30 in Calm     93% 0 in 0 W/m2
03:18 57.6 °F 55.2 °F 30 in Calm     92% 0 in 0 W/m2
03:23 57.6 °F 55.2 °F 30 in Calm     92% 0 in 0 W/m2
03:28 57.7 °F 55.4 °F 30 in Calm     92% 0 in 0 W/m2
03:33 57.7 °F 55.4 °F 30 in Calm     92% 0 in 0 W/m2
03:38 57.7 °F 55.2 °F 30 in Calm     91% 0 in 0 W/m2
03:43 57.6 °F 55 °F 30 in Calm     91% 0 in 0 W/m2
03:48 57.6 °F 55 °F 30 in Calm     91% 0 in 0 W/m2
03:53 57.4 °F 54.9 °F 30 in Calm     91% 0 in 0 W/m2
03:58 57 °F 54.1 °F 30 in Calm     90% 0 in 0 W/m2
04:03 56.8 °F 54 °F 30 in Calm     90% 0 in 0 W/m2
04:08 56.7 °F 53.8 °F 30 in Calm     90% 0 in 0 W/m2
04:13 56.5 °F 53.6 °F 30 in Calm     90% 0 in 0 W/m2
04:18 56.3 °F 53.4 °F 30 in Calm     90% 0 in 0 W/m2
04:23 56.1 °F 53.6 °F 30 in Calm     91% 0 in 0 W/m2
04:28 55.9 °F 53.4 °F 30 in Calm     91% 0 in 0 W/m2
04:33 55.9 °F 53.4 °F 30 in Calm     91% 0 in 0 W/m2
04:38 55.8 °F 53.2 °F 30 in Calm     91% 0 in 0 W/m2
04:43 55.8 °F 53.2 °F 30 in Calm     91% 0 in 0 W/m2
04:48 55.6 °F 53.2 °F 30 in Calm     92% 0 in 0 W/m2
04:54 55.4 °F 53.1 °F 30 in Calm     92% 0 in 0 W/m2
04:59 55.6 °F 53.2 °F 30 in Calm     92% 0 in 0 W/m2
05:04 55.6 °F 53.6 °F 30 in Calm     93% 0 in 0 W/m2
05:09 55.6 °F 53.6 °F 30 in Calm     93% 0 in 0 W/m2
05:14 55.6 °F 53.6 °F 30 in Calm     93% 0 in 0 W/m2
05:19 55.6 °F 53.6 °F 30 in Calm     93% 0 in 0 W/m2
05:24 55.8 °F 53.8 °F 30 in Calm   1 mph 93% 0 in 0 W/m2
05:29 55.9 °F 54 °F 30 in Calm     93% 0 in 0 W/m2
05:34 55.9 °F 54 °F 30 in Calm   1 mph 93% 0 in 0 W/m2
05:39 56.1 °F 54.1 °F 30 in Calm     93% 0 in 0 W/m2
05:44 56.3 °F 54.3 °F 30 in Calm     93% 0 in 0 W/m2
05:49 56.5 °F 54.5 °F 30 in Calm     93% 0 in 0 W/m2
05:54 56.7 °F 54.7 °F 30 in Calm     93% 0 in 0 W/m2
05:59 56.7 °F 54.7 °F 30 in Calm     93% 0 in 0 W/m2
06:04 56.8 °F 54.9 °F 30 in Calm   2 mph 93% 0 in 0 W/m2
06:09 57 °F 55 °F 30 in Calm     93% 0 in 0 W/m2
06:14 57 °F 55 °F 30 in Calm   1 mph 93% 0 in 0 W/m2
06:19 57.2 °F 54.9 °F 30 in Calm     92% 0 in 0 W/m2
06:24 57.2 °F 54.9 °F 30 in Calm     92% 0 in 0 W/m2
06:29 57.4 °F 55 °F 30 in Calm     92% 0 in 0 W/m2
06:34 57.4 °F 55 °F 30 in Calm     92% 0 in 0 W/m2
06:39 57.4 °F 55 °F 30 in Calm     92% 0 in 0 W/m2
06:44 57.4 °F 55 °F 30 in Calm     92% 0 in 0 W/m2
06:49 57.4 °F 54.9 °F 30 in Calm     91% 0 in 0 W/m2
06:54 57.4 °F 54.9 °F 30 in Calm     91% 0 in 0 W/m2
06:59 57.4 °F 54.9 °F 30 in Calm     91% 0 in 0 W/m2
07:04 57.4 °F 54.9 °F 30 in Calm     91% 0 in 0 W/m2
07:09 57.4 °F 54.9 °F 30 in Calm     91% 0 in 0 W/m2
07:14 57.4 °F 54.9 °F 30 in Calm     91% 0 in 0 W/m2
07:19 57.4 °F 54.9 °F 30 in Calm     91% 0 in 5 W/m2
07:24 57.4 °F 54.9 °F 30 in Calm     91% 0 in 5 W/m2
07:29 57.6 °F 55 °F 30 in Calm     91% 0 in 5 W/m2
07:34 57.4 °F 54.9 °F 30 in Calm     91% 0 in 9 W/m2
07:39 57.4 °F 54.9 °F 30 in Calm     91% 0 in 18 W/m2
07:44 57.6 °F 54.7 °F 30 in Calm     90% 0 in 21 W/m2
07:49 57.6 °F 54.7 °F 30 in Calm     90% 0 in 28 W/m2
07:54 57.6 °F 54.7 °F 30 in Calm   1 mph 90% 0 in 33 W/m2
07:59 57.6 °F 54.7 °F 30 in Calm   1 mph 90% 0 in 42 W/m2
08:04 57.7 °F 54.9 °F 30 in SSE 0.9 mph 1 mph 90% 0 in 46 W/m2
08:09 57.7 °F 54.9 °F 30 in Calm     90% 0 in 51 W/m2
08:14 57.9 °F 55 °F 30 in Calm     90% 0 in 56 W/m2
08:19 58.1 °F 54.9 °F 30 in Calm     89% 0 in 60 W/m2
08:24 58.3 °F 55 °F 30 in Calm     89% 0 in 72 W/m2
08:29 58.3 °F 55 °F 30 in Calm     89% 0 in 76 W/m2
08:34 58.5 °F 55.2 °F 30 in Calm     89% 0 in 86 W/m2
08:39 58.6 °F 55 °F 30 in Calm     88% 0 in 90 W/m2
08:44 58.8 °F 55.2 °F 30 in Calm     88% 0 in 93 W/m2
08:49 58.8 °F 55.2 °F 30 in Calm     88% 0 in 95 W/m2
08:54 59.2 °F 55.6 °F 30 in Calm     88% 0 in 105 W/m2
08:59 59.4 °F 55.4 °F 30 in Calm     87% 0 in 116 W/m2
09:04 59.5 °F 55.6 °F 30 in Calm     87% 0 in 121 W/m2
09:09 59.5 °F 55.4 °F 30 in Calm     86% 0 in 128 W/m2
09:14 59.9 °F 55.9 °F 30 in Calm     87% 0 in 141 W/m2
09:19 60.1 °F 55.9 °F 30 in Calm   1 mph 86% 0 in 86 W/m2
09:24 60.3 °F 56.1 °F 30 in Calm     86% 0 in 192 W/m2
09:29 60.6 °F 56.5 °F 30 in Calm   2 mph 86% 0 in 304 W/m2
09:34 61 °F 56.1 °F 30 in NNW 0.9 mph 2 mph 84% 0 in 315 W/m2
09:39 61.3 °F 56.1 °F 30 in NNW 2 mph 3 mph 83% 0 in 308 W/m2
09:44 61.7 °F 56.5 °F 30 in Calm   3 mph 83% 0 in 332 W/m2
09:49 62.2 °F 57 °F 30 in Calm   1 mph 83% 0 in 355 W/m2
09:54 62.4 °F 56.8 °F 30 in ENE 2 mph 3 mph 82% 0 in 362 W/m2
09:59 63.1 °F 56.8 °F 30 in ESE 0.9 mph 3 mph 80% 0 in 362 W/m2
10:04 63.5 °F 56.8 °F 30 in NNW 0.9 mph 2 mph 79% 0 in 388 W/m2
10:09 64 °F 57.4 °F 30 in NE 4.9 mph 5 mph 79% 0 in 388 W/m2
10:14 64.2 °F 57.2 °F 30 in NE 0.9 mph 4 mph 78% 0 in 376 W/m2
10:19 64.4 °F 57 °F 30 in East 2 mph 5 mph 77% 0 in 408 W/m2
10:24 64.8 °F 57.7 °F 30 in ENE 2 mph 3 mph 78% 0 in 441 W/m2
10:29 65.1 °F 57.4 °F 30 in East 0.9 mph 3 mph 76% 0 in 427 W/m2
10:34 65.3 °F 57.2 °F 30 in Calm   2 mph 75% 0 in 441 W/m2
10:39 65.5 °F 57.4 °F 30 in Calm   2 mph 75% 0 in 420 W/m2
10:45 65.7 °F 57.6 °F 30 in Calm   3 mph 75% 0 in 425 W/m2
10:55 66.2 °F 58.1 °F 30 in Calm   2 mph 75% 0 in 540 W/m2
11:00 66.6 °F 58.1 °F 30 in East 2 mph 4 mph 74% 0 in 496 W/m2
11:05 66.9 °F 58.3 °F 30 in Calm   3 mph 74% 0 in 508 W/m2
11:10 67.5 °F 58.5 °F 30 in East 2 mph 3 mph 73% 0 in 529 W/m2
11:15 67.6 °F 58.3 °F 30 in NNE 0.9 mph 4 mph 72% 0 in 536 W/m2
11:20 67.6 °F 58.6 °F 30 in ENE 2 mph 3 mph 73% 0 in 541 W/m2
11:25 67.6 °F 58.3 °F 30 in North 0.9 mph 2 mph 72% 0 in 543 W/m2
11:30 68 °F 58.3 °F 30 in SE 2 mph 3 mph 71% 0 in 536 W/m2
11:35 68.4 °F 59.4 °F 30 in SE 2 mph 2 mph 73% 0 in 606 W/m2
11:40 68.7 °F 59.4 °F 30 in Calm   4 mph 72% 0 in 568 W/m2
11:45 69.1 °F 59.4 °F 30 in ENE 4 mph 4 mph 71% 0 in 570 W/m2
11:50 69.4 °F 59.5 °F 30 in ESE 0.9 mph 6 mph 71% 0 in 603 W/m2
12:00 70.2 °F 59.9 °F 30 in Calm   4 mph 70% 0 in 515 W/m2
12:05 70.5 °F 59.4 °F 30 in ESE 0.9 mph 2 mph 68% 0 in 638 W/m2
12:10 71.2 °F 60.1 °F 30 in Calm   2 mph 68% 0 in 580 W/m2
12:15 71.8 °F 59.7 °F 30 in ENE 4 mph 4 mph 66% 0 in 628 W/m2
12:20 72 °F 59.9 °F 30 in Calm   2 mph 66% 0 in 563 W/m2
12:25 72.7 °F 60.6 °F 30 in East 0.9 mph 3 mph 66% 0 in 628 W/m2
12:30 72.9 °F 59.9 °F 30 in NE 2 mph 4 mph 64% 0 in 543 W/m2
12:35 72.9 °F 59.9 °F 30 in ENE 0.9 mph 2 mph 64% 0 in 582 W/m2
12:40 72.9 °F 59.5 °F 30 in East 2 mph 3 mph 63% 0 in 578 W/m2
12:45 73 °F 60.1 °F 30 in SE 2 mph 4 mph 64% 0 in 531 W/m2
12:50 73.2 °F 59.9 °F 30 in SSE 2 mph 5 mph 63% 0 in 587 W/m2
12:55 73.4 °F 60.1 °F 30 in East 0.9 mph 2 mph 63% 0 in 570 W/m2
13:00 73.6 °F 59.7 °F 30 in ENE 2.9 mph 4 mph 62% 0 in 603 W/m2
13:05 73.8 °F 59.9 °F 30 in NE 0.9 mph 4 mph 62% 0 in 621 W/m2
13:10 73.9 °F 59.7 °F 30 in ENE 0.9 mph 3 mph 61% 0 in 654 W/m2
13:15 74.1 °F 58.8 °F 30 in East 4 mph 6 mph 59% 0 in 668 W/m2
13:20 73.9 °F 59.2 °F 30 in Calm   7 mph 60% 0 in 664 W/m2
13:25 74.1 °F 59.7 °F 30 in ESE 2 mph 3 mph 61% 0 in 584 W/m2
13:30 74.5 °F 59.2 °F 30 in Calm   4 mph 59% 0 in 635 W/m2
13:35 74.7 °F 59.4 °F 30 in ENE 0.9 mph 2 mph 59% 0 in 599 W/m2
13:40 74.8 °F 60.1 °F 30 in ENE 2 mph 4 mph 60% 0 in 589 W/m2
13:45 74.8 °F 58.6 °F 30 in Calm   5 mph 57% 0 in 526 W/m2
13:50 74.8 °F 59 °F 30 in SSE 0.9 mph 3 mph 58% 0 in 512 W/m2
13:55 75 °F 61.2 °F 30 in NNW 2 mph 2 mph 62% 0 in 519 W/m2
14:00 75 °F 60.6 °F 30 in East 0.9 mph 1 mph 61% 0 in 478 W/m2
14:05 74.8 °F 59.5 °F 30 in SW 2 mph 3 mph 59% 0 in 494 W/m2
14:10 74.8 °F 59.5 °F 30 in SE 2 mph 5 mph 59% 0 in 471 W/m2
14:15 75 °F 59.2 °F 30 in ESE 2.9 mph 6 mph 58% 0 in 621 W/m2
14:20 74.8 °F 59.5 °F 30 in SSE 0.9 mph 3 mph 59% 0 in 636 W/m2
14:25 75.2 °F 60.4 °F 30 in NE 0.9 mph 1 mph 60% 0 in 650 W/m2
14:30 75.6 °F 59.2 °F 30 in East 0.9 mph 6 mph 57% 0 in 694 W/m2
14:35 75.7 °F 59.4 °F 30 in SE 2 mph 3 mph 57% 0 in 629 W/m2
14:40 75.6 °F 58.8 °F 30 in SE 0.9 mph 6 mph 56% 0 in 626 W/m2
14:45 75.7 °F 59 °F 30 in SE 2 mph 8 mph 56% 0 in 694 W/m2
14:50 75.7 °F 59 °F 30 in ENE 2.9 mph 7 mph 56% 0 in 654 W/m2
14:55 75.9 °F 59.2 °F 30 in NE 2 mph 8 mph 56% 0 in 635 W/m2
15:01 76.5 °F 59.2 °F 30 in SSE 4.9 mph 5 mph 55% 0 in 638 W/m2
15:06 76.6 °F 59.2 °F 30 in East 2.9 mph 4 mph 55% 0 in 626 W/m2
15:11 76.8 °F 60.4 °F 30 in East 2 mph 2 mph 57% 0 in 251 W/m2
15:16 76.6 °F 59.2 °F 30 in Calm   2 mph 55% 0 in 568 W/m2
15:21 76.8 °F 59.9 °F 30 in East 2 mph 4 mph 56% 0 in 541 W/m2
15:26 76.6 °F 59.2 °F 30 in West 2 mph 3 mph 55% 0 in 527 W/m2
15:31 76.8 °F 60.4 °F 30 in NE 2.9 mph 3 mph 57% 0 in 601 W/m2
15:36 76.6 °F 60.3 °F 30 in Calm   3 mph 57% 0 in 601 W/m2
15:41 76.5 °F 60.1 °F 30 in SE 0.9 mph 1 mph 57% 0 in 585 W/m2
15:46 76.5 °F 59.5 °F 30 in ENE 2 mph 3 mph 56% 0 in 621 W/m2
15:51 76.8 °F 59.4 °F 30 in NNE 2 mph 2 mph 55% 0 in 603 W/m2
15:56 77.2 °F 58.6 °F 30 in NNE 2 mph 4 mph 53% 0 in 571 W/m2
16:01 77.2 °F 58.3 °F 30 in ENE 2 mph 3 mph 52% 0 in 517 W/m2
16:06 77.4 °F 58.3 °F 30 in East 0.9 mph 2 mph 52% 0 in 629 W/m2
16:11 77.7 °F 58.6 °F 30 in East 0.9 mph 2 mph 52% 0 in 533 W/m2
16:16 78.1 °F 60.1 °F 30 in NW 0.9 mph 3 mph 54% 0 in 503 W/m2
16:21 78.3 °F 59.7 °F 30 in NNW 2 mph 6 mph 53% 0 in 599 W/m2
16:26 78.3 °F 59.7 °F 30 in East 2 mph 4 mph 53% 0 in 480 W/m2
16:31 78.3 °F 59.7 °F 30 in East 2.9 mph 4 mph 53% 0 in 504 W/m2
16:36 78.1 °F 60.1 °F 30 in ESE 2 mph 4 mph 54% 0 in 538 W/m2
16:41 77.9 °F 59.4 °F 30 in SE 0.9 mph 1 mph 53% 0 in 487 W/m2
16:46 78.3 °F 59.7 °F 30 in Calm   1 mph 53% 0 in 512 W/m2
16:51 78.6 °F 57.9 °F 30 in ESE 0.9 mph 3 mph 49% 0 in 503 W/m2
16:56 78.6 °F 60.1 °F 30 in Calm   1 mph 53% 0 in 482 W/m2
17:01 78.4 °F 59.9 °F 30 in Calm   2 mph 53% 0 in 462 W/m2
17:06 78.4 °F 60.4 °F 30 in Calm     54% 0 in 424 W/m2
17:11 78.6 °F 60.1 °F 30 in East 0.9 mph 1 mph 53% 0 in 422 W/m2
17:16 78.8 °F 59.2 °F 30 in East 2 mph 4 mph 51% 0 in 381 W/m2
17:21 78.6 °F 59.5 °F 30 in ENE 0.9 mph 1 mph 52% 0 in 424 W/m2
17:26 78.4 °F 59.4 °F 30 in ESE 0.9 mph 4 mph 52% 0 in 410 W/m2
17:31 78.6 °F 60.1 °F 30 in SE 0.9 mph 4 mph 53% 0 in 420 W/m2
17:36 78.4 °F 58.3 °F 30 in ENE 2.9 mph 4 mph 50% 0 in 411 W/m2
17:41 78.4 °F 59.4 °F 30 in Calm   1 mph 52% 0 in 380 W/m2
17:46 78.4 °F 60.4 °F 30 in Calm     54% 0 in 373 W/m2
17:51 78.4 °F 58.8 °F 30 in ESE 2 mph 2 mph 51% 0 in 369 W/m2
17:56 78.6 °F 59.5 °F 30 in Calm   2 mph 52% 0 in 301 W/m2
18:01 78.6 °F 60.6 °F 30 in Calm     54% 0 in 272 W/m2
18:06 78.6 °F 59.5 °F 30 in Calm   1 mph 52% 0 in 241 W/m2
18:11 78.1 °F 59 °F 30 in NE 2 mph 6 mph 52% 0 in 188 W/m2
18:16 77.4 °F 58.8 °F 30 in SE 2 mph 5 mph 53% 0 in 169 W/m2
18:21 76.6 °F 58.8 °F 30 in East 2 mph 3 mph 54% 0 in 134 W/m2
18:26 76.3 °F 58.5 °F 30 in ESE 0.9 mph 4 mph 54% 0 in 139 W/m2
18:31 75.9 °F 59.2 °F 30 in ESE 0.9 mph 2 mph 56% 0 in 127 W/m2
18:36 75.6 °F 58.8 °F 29.9 in East 0.9 mph 3 mph 56% 0 in 114 W/m2
18:41 75.2 °F 58.5 °F 29.9 in NE 2.9 mph 3 mph 56% 0 in 100 W/m2
18:46 74.8 °F 59.5 °F 29.9 in Calm   1 mph 59% 0 in 79 W/m2
18:51 74.7 °F 60.8 °F 30 in Calm     62% 0 in 79 W/m2
18:56 73.9 °F 61 °F 29.9 in SE 0.9 mph 2 mph 64% 0 in 56 W/m2
19:01 73.2 °F 60.3 °F 30 in SE 0.9 mph 2 mph 64% 0 in 46 W/m2
19:06 72.7 °F 60.3 °F 30 in Calm   2 mph 65% 0 in 39 W/m2
19:11 72.1 °F 60.6 °F 29.9 in Calm   2 mph 67% 0 in 33 W/m2
19:16 71.6 °F 60.1 °F 30 in Calm   2 mph 67% 0 in 30 W/m2
19:21 71.1 °F 59.9 °F 30 in SE 0.9 mph 2 mph 68% 0 in 26 W/m2
19:26 70.5 °F 59.9 °F 30 in SE 0.9 mph 2 mph 69% 0 in 23 W/m2
19:31 70.2 °F 59.9 °F 29.9 in Calm   1 mph 70% 0 in 19 W/m2
19:36 69.6 °F 59.7 °F 29.9 in SE 0.9 mph 2 mph 71% 0 in 14 W/m2
19:41 69.3 °F 59.5 °F 29.9 in SE 0.9 mph 2 mph 71% 0 in 9 W/m2
19:46 68.7 °F 59.4 °F 30 in Calm     72% 0 in 7 W/m2
19:51 68.2 °F 59.2 °F 30 in SE 0.9 mph 2 mph 73% 0 in 5 W/m2
19:56 67.6 °F 59.4 °F 29.9 in Calm   1 mph 75% 0 in 0 W/m2
20:01 67.5 °F 59.2 °F 29.9 in Calm   1 mph 75% 0 in 0 W/m2
20:06 66.9 °F 59.2 °F 29.9 in Calm   1 mph 76% 0 in 0 W/m2
20:12 66.6 °F 59.2 °F 30 in SE 0.9 mph 1 mph 77% 0 in 0 W/m2
20:17 66.4 °F 59.4 °F 30 in Calm   1 mph 78% 0 in 0 W/m2
20:22 66 °F 59.4 °F 30 in Calm   1 mph 79% 0 in 0 W/m2
20:27 65.7 °F 59 °F 29.9 in Calm     79% 0 in 0 W/m2
20:32 65.5 °F 59.2 °F 30 in Calm     80% 0 in 0 W/m2
20:37 65.1 °F 58.8 °F 30 in Calm   2 mph 80% 0 in 0 W/m2
20:42 65.1 °F 59.2 °F 30 in Calm   1 mph 81% 0 in 0 W/m2
20:47 65.1 °F 59.2 °F 30 in SE 0.9 mph 1 mph 81% 0 in 0 W/m2
20:52 65.1 °F 59.2 °F 30 in SE 0.9 mph 1 mph 81% 0 in 0 W/m2
20:57 65.1 °F 59.2 °F 30 in Calm   1 mph 81% 0 in 0 W/m2
21:02 64.9 °F 59 °F 30 in Calm     81% 0 in 0 W/m2
21:07 64.8 °F 59.2 °F 30 in Calm   1 mph 82% 0 in 0 W/m2
21:12 64.6 °F 59 °F 30 in SE 0.9 mph 1 mph 82% 0 in 0 W/m2
21:17 64.4 °F 58.8 °F 30 in Calm     82% 0 in 0 W/m2
21:22 64.2 °F 59 °F 30 in Calm     83% 0 in 0 W/m2
21:27 64 °F 58.8 °F 30 in Calm   1 mph 83% 0 in 0 W/m2
21:32 63.9 °F 59 °F 30 in Calm   1 mph 84% 0 in 0 W/m2
21:37 63.9 °F 59 °F 30 in Calm   1 mph 84% 0 in 0 W/m2
21:42 63.7 °F 58.8 °F 30 in Calm     84% 0 in 0 W/m2
21:47 63.7 °F 58.8 °F 30 in Calm   2 mph 84% 0 in 0 W/m2
21:52 63.3 °F 58.5 °F 30 in Calm   1 mph 84% 0 in 0 W/m2
21:57 63.3 °F 58.8 °F 30 in Calm   1 mph 85% 0 in 0 W/m2
22:02 63.3 °F 58.8 °F 30 in Calm     85% 0 in 0 W/m2
22:07 63.1 °F 58.6 °F 30 in SE 0.9 mph 1 mph 85% 0 in 0 W/m2
22:12 63 °F 58.5 °F 30 in Calm   1 mph 85% 0 in 0 W/m2
22:22 62.8 °F 58.3 °F 30 in Calm   1 mph 85% 0 in 0 W/m2
22:27 62.8 °F 58.5 °F 30 in Calm     86% 0 in 0 W/m2
22:32 62.4 °F 58.1 °F 30 in Calm     86% 0 in 0 W/m2
22:37 62.4 °F 58.1 °F 30 in Calm     86% 0 in 0 W/m2
22:42 62.2 °F 57.9 °F 30 in Calm     86% 0 in 0 W/m2
22:47 62.2 °F 58.3 °F 30 in Calm     87% 0 in 0 W/m2
22:52 62.1 °F 58.1 °F 30 in Calm     87% 0 in 0 W/m2
22:57 62.1 °F 58.1 °F 30 in Calm     87% 0 in 0 W/m2
23:02 61.9 °F 57.9 °F 30 in Calm     87% 0 in 0 W/m2
23:07 61.9 °F 58.3 °F 30 in Calm     88% 0 in 0 W/m2
23:12 61.7 °F 58.1 °F 30 in Calm     88% 0 in 0 W/m2
23:17 61.5 °F 57.9 °F 30 in Calm     88% 0 in 0 W/m2
23:22 61.5 °F 57.9 °F 30 in Calm     88% 0 in 0 W/m2
23:27 61.3 °F 57.7 °F 30 in Calm     88% 0 in 0 W/m2
23:32 61.3 °F 57.7 °F 30 in Calm     88% 0 in 0 W/m2
23:37 61.3 °F 58.1 °F 30 in Calm     89% 0 in 0 W/m2
23:42 61.3 °F 58.1 °F 30 in Calm     89% 0 in 0 W/m2
23:47 61.2 °F 57.9 °F 30 in Calm   1 mph 89% 0 in 0 W/m2
23:52 61.2 °F 57.9 °F 30 in Calm     89% 0 in 0 W/m2
23:57 61.2 °F 57.9 °F 30 in Calm   1 mph 89% 0 in 0 W/m2
Juneau County Weather
Compliments of Weather Underground - 4 mb